Time;durP1;ratioP1;P1;durP2;ratioP2;P2;SDS_P1;SDS_P2;PMS_P1;PMS_P2;Temp;Humidity;BMP_temperature;BMP_pressure;BME280_temperature;BME280_humidity;BME280_pressure;Samples;Min_cycle;Max_cycle;Signal;HPM_P1;HPM_P2
2021/10/17 00:00:10;;;;;;;;;;;10.80;99.90;;;;;;1869425;76;20227;-72
2021/10/17 00:02:39;;;;;;;;;;;10.80;99.90;;;;;;1872121;76;20159;-72
2021/10/17 00:05:06;;;;;;;;;;;10.80;99.90;;;;;;1868030;76;20204;-72
2021/10/17 00:07:33;;;;;;;;;;;10.90;99.90;;;;;;1868492;76;20143;-73
2021/10/17 00:10:00;;;;;;;;;;;10.80;99.90;;;;;;1874726;76;20168;-73
2021/10/17 00:12:27;;;;;;;;;;;10.80;99.90;;;;;;1868479;76;20175;-72
2021/10/17 00:14:54;;;;;;;;;;;10.80;99.90;;;;;;1871081;75;20116;-72
2021/10/17 00:17:20;;;;;;;;;;;10.80;99.90;;;;;;1867471;76;20203;-72
2021/10/17 00:19:47;;;;;;;;;;;10.80;99.90;;;;;;1871757;76;20202;-72
2021/10/17 00:22:14;;;;;;;;;;;10.80;99.90;;;;;;1870439;76;20162;-72
2021/10/17 00:24:41;;;;;;;;;;;10.80;99.90;;;;;;1875800;76;20562;-72
2021/10/17 00:27:08;;;;;;;;;;;10.70;99.90;;;;;;1874799;76;20159;-72
2021/10/17 00:29:34;;;;;;;;;;;10.70;99.90;;;;;;1869871;76;20218;-73
2021/10/17 00:32:01;;;;;;;;;;;10.80;99.90;;;;;;1874046;76;20223;-72
2021/10/17 00:34:29;;;;;;;;;;;10.80;99.90;;;;;;1874825;76;20438;-73
2021/10/17 00:36:55;;;;;;;;;;;10.90;99.90;;;;;;1867900;76;20657;-72
2021/10/17 00:39:22;;;;;;;;;;;10.80;99.90;;;;;;1869134;76;20190;-72
2021/10/17 00:41:50;;;;;;;;;;;10.80;99.90;;;;;;1870704;76;20511;-73
2021/10/17 00:44:21;;;;;;;;;;;10.90;99.90;;;;;;1872910;76;20197;-74
2021/10/17 00:46:49;;;;;;;;;;;10.90;99.90;;;;;;1875342;76;20159;-73
2021/10/17 00:49:16;;;;;;;;;;;10.90;99.90;;;;;;1871945;76;20173;-73
2021/10/17 00:51:43;;;;;;;;;;;10.90;99.90;;;;;;1873457;76;20105;-73
2021/10/17 00:54:11;;;;;;;;;;;10.90;99.90;;;;;;1871432;76;20201;-73
2021/10/17 00:56:38;;;;;;;;;;;10.90;99.90;;;;;;1869787;76;20250;-73
2021/10/17 00:59:05;;;;;;;;;;;10.90;99.90;;;;;;1871564;76;20112;-73
2021/10/17 01:01:32;;;;;;;;;;;10.90;99.90;;;;;;1871531;75;20219;-72
2021/10/17 01:03:58;;;;;;;;;;;10.90;99.90;;;;;;1879479;76;20219;-73
2021/10/17 01:06:25;;;;;;;;;;;11.00;99.90;;;;;;1870653;76;20183;-73
2021/10/17 01:08:52;;;;;;;;;;;11.00;99.90;;;;;;1871807;76;20202;-72
2021/10/17 01:11:19;;;;;;;;;;;10.90;99.90;;;;;;1872504;75;20379;-72
2021/10/17 01:13:46;;;;;;;;;;;11.00;99.90;;;;;;1867008;76;20216;-73
2021/10/17 01:16:13;;;;;;;;;;;11.00;99.90;;;;;;1872519;76;20375;-73
2021/10/17 01:18:39;;;;;;;;;;;11.00;99.90;;;;;;1873984;76;20168;-73
2021/10/17 01:21:06;;;;;;;;;;;11.00;99.90;;;;;;1874291;76;20160;-73
2021/10/17 01:23:33;;;;;;;;;;;11.00;99.90;;;;;;1871638;76;20204;-73
2021/10/17 01:26:00;;;;;;;;;;;11.00;99.90;;;;;;1869182;76;20206;-72
2021/10/17 01:28:27;;;;;;;;;;;10.90;99.90;;;;;;1869354;76;20149;-72
2021/10/17 01:30:54;;;;;;;;;;;11.00;99.90;;;;;;1870546;76;20187;-73
2021/10/17 01:33:20;;;;;;;;;;;11.00;99.90;;;;;;1874116;76;20164;-73
2021/10/17 01:35:47;;;;;;;;;;;11.00;99.90;;;;;;1870582;76;20459;-73
2021/10/17 01:38:14;;;;;;;;;;;10.90;99.90;;;;;;1867863;76;20224;-73
2021/10/17 01:40:41;;;;;;;;;;;11.00;99.90;;;;;;1868876;76;20487;-73
2021/10/17 01:43:08;;;;;;;;;;;11.00;99.90;;;;;;1866222;75;20257;-73
2021/10/17 01:45:35;;;;;;;;;;;10.90;99.90;;;;;;1867874;76;20210;-73
2021/10/17 01:48:02;;;;;;;;;;;11.00;99.90;;;;;;1869005;76;20139;-73
2021/10/17 01:50:29;;;;;;;;;;;11.00;99.90;;;;;;1873016;75;20486;-73
2021/10/17 01:52:56;;;;;;;;;;;10.90;99.90;;;;;;1871127;76;20115;-73
2021/10/17 01:55:23;;;;;;;;;;;10.80;99.90;;;;;;1874027;75;20496;-72
2021/10/17 01:57:50;;;;;;;;;;;10.90;99.90;;;;;;1875194;76;20222;-73
2021/10/17 02:00:16;;;;;;;;;;;10.90;99.90;;;;;;1871346;76;20595;-72
2021/10/17 02:02:43;;;;;;;;;;;11.00;99.90;;;;;;1870365;76;20171;-72
2021/10/17 02:05:10;;;;;;;;;;;11.00;99.90;;;;;;1871876;76;20168;-72
2021/10/17 02:07:37;;;;;;;;;;;10.90;99.90;;;;;;1871179;76;20509;-72
2021/10/17 02:10:04;;;;;;;;;;;11.00;99.90;;;;;;1872558;76;20157;-72
2021/10/17 02:12:31;;;;;;;;;;;11.00;99.90;;;;;;1874327;75;20177;-72
2021/10/17 02:14:59;;;;;;;;;;;11.00;99.90;;;;;;1873192;76;20153;-72
2021/10/17 02:17:30;;;;;;;;;;;10.90;99.90;;;;;;1871366;76;20125;-72
2021/10/17 02:19:54;;;;;;;;;;;10.90;99.90;;;;;;1870823;75;20491;-72
2021/10/17 02:22:21;;;;;;;;;;;11.00;99.90;;;;;;1873208;76;20199;-72
2021/10/17 02:24:48;;;;;;;;;;;11.00;99.90;;;;;;1874939;76;20180;-72
2021/10/17 02:27:15;;;;;;;;;;;11.00;99.90;;;;;;1870322;76;20161;-73
2021/10/17 02:29:41;;;;;;;;;;;11.00;99.90;;;;;;1876110;76;20184;-73
2021/10/17 02:32:08;;;;;;;;;;;11.00;99.90;;;;;;1869835;76;20119;-73
2021/10/17 02:34:35;;;;;;;;;;;11.00;99.90;;;;;;1869413;76;20225;-73
2021/10/17 02:37:02;;;;;;;;;;;11.00;99.90;;;;;;1863678;76;20182;-72
2021/10/17 02:39:29;;;;;;;;;;;11.00;99.90;;;;;;1866516;76;20124;-72
2021/10/17 02:41:55;;;;;;;;;;;11.00;99.90;;;;;;1865581;76;20231;-72
2021/10/17 02:44:22;;;;;;;;;;;11.00;99.90;;;;;;1866841;76;20180;-72
2021/10/17 02:46:49;;;;;;;;;;;11.00;99.90;;;;;;1868610;76;20210;-72
2021/10/17 02:49:16;;;;;;;;;;;11.00;99.90;;;;;;1871940;76;20178;-72
2021/10/17 02:51:43;;;;;;;;;;;11.00;99.90;;;;;;1868708;76;20222;-72
2021/10/17 02:54:10;;;;;;;;;;;11.00;99.90;;;;;;1873601;76;20172;-72
2021/10/17 02:56:36;;;;;;;;;;;11.00;99.90;;;;;;1871851;76;20172;-72
2021/10/17 02:59:03;;;;;;;;;;;11.00;99.90;;;;;;1871571;76;20125;-73
2021/10/17 03:01:30;;;;;;;;;;;11.00;99.90;;;;;;1868149;76;20209;-72
2021/10/17 03:03:57;;;;;;;;;;;11.00;99.90;;;;;;1869306;76;20168;-72
2021/10/17 03:06:26;;;;;;;;;;;11.00;99.90;;;;;;1870491;76;20198;-72
2021/10/17 03:08:53;;;;;;;;;;;11.00;99.90;;;;;;1871580;76;20500;-72
2021/10/17 03:11:20;;;;;;;;;;;11.00;99.90;;;;;;1876994;75;20215;-73
2021/10/17 03:13:46;;;;;;;;;;;11.10;99.90;;;;;;1873209;76;20667;-72
2021/10/17 03:16:13;;;;;;;;;;;11.00;99.90;;;;;;1868316;76;20207;-73
2021/10/17 03:18:40;;;;;;;;;;;11.10;99.90;;;;;;1870064;76;20167;-73
2021/10/17 03:21:07;;;;;;;;;;;11.10;99.90;;;;;;1873834;75;20167;-73
2021/10/17 03:23:34;;;;;;;;;;;11.00;99.90;;;;;;1873735;75;20167;-73
2021/10/17 03:26:01;;;;;;;;;;;11.00;99.90;;;;;;1871520;75;20173;-73
2021/10/17 03:28:27;;;;;;;;;;;11.00;99.90;;;;;;1873818;76;20175;-73
2021/10/17 03:30:55;;;;;;;;;;;11.10;99.90;;;;;;1867392;76;20151;-72
2021/10/17 03:33:22;;;;;;;;;;;11.00;99.90;;;;;;1873741;76;20172;-73
2021/10/17 03:35:49;;;;;;;;;;;11.10;99.90;;;;;;1871075;76;20206;-73
2021/10/17 03:38:16;;;;;;;;;;;11.10;99.90;;;;;;1872197;76;20121;-73
2021/10/17 03:40:43;;;;;;;;;;;11.10;99.90;;;;;;1875177;76;20175;-73
2021/10/17 03:43:10;;;;;;;;;;;11.10;99.90;;;;;;1872727;75;20183;-73
2021/10/17 03:45:36;;;;;;;;;;;11.10;99.90;;;;;;1872541;76;20169;-73
2021/10/17 03:48:03;;;;;;;;;;;11.10;99.90;;;;;;1869087;76;20219;-72
2021/10/17 03:50:30;;;;;;;;;;;11.10;99.90;;;;;;1869716;75;20209;-72
2021/10/17 03:52:57;;;;;;;;;;;11.10;99.90;;;;;;1869945;75;20175;-72
2021/10/17 03:55:24;;;;;;;;;;;11.10;99.90;;;;;;1867579;75;20252;-72
2021/10/17 03:57:51;;;;;;;;;;;11.10;99.90;;;;;;1874365;76;20389;-72
2021/10/17 04:00:17;;;;;;;;;;;11.10;99.90;;;;;;1870892;76;20971;-73
2021/10/17 04:02:44;;;;;;;;;;;11.10;99.90;;;;;;1868074;76;20219;-72
2021/10/17 04:05:11;;;;;;;;;;;11.10;99.90;;;;;;1870641;76;20109;-73
2021/10/17 04:07:38;;;;;;;;;;;11.10;99.90;;;;;;1873200;75;20171;-73
2021/10/17 04:10:05;;;;;;;;;;;11.10;99.90;;;;;;1867623;76;20216;-73
2021/10/17 04:12:32;;;;;;;;;;;11.10;99.90;;;;;;1871439;76;20204;-72
2021/10/17 04:14:59;;;;;;;;;;;11.10;99.90;;;;;;1866908;76;20122;-72
2021/10/17 04:17:26;;;;;;;;;;;11.10;99.90;;;;;;1870792;75;20183;-72
2021/10/17 04:19:53;;;;;;;;;;;11.10;99.90;;;;;;1871296;76;20300;-72
2021/10/17 04:22:21;;;;;;;;;;;11.10;99.90;;;;;;1871200;76;20219;-72
2021/10/17 04:24:48;;;;;;;;;;;11.10;99.90;;;;;;1873342;76;20173;-72
2021/10/17 04:27:15;;;;;;;;;;;11.10;99.90;;;;;;1871221;76;20471;-72
2021/10/17 04:29:42;;;;;;;;;;;11.10;99.90;;;;;;1873555;76;20387;-72
2021/10/17 04:32:08;;;;;;;;;;;11.10;99.90;;;;;;1873924;76;20168;-72
2021/10/17 04:34:37;;;;;;;;;;;11.10;99.90;;;;;;1874853;76;20177;-72
2021/10/17 04:37:04;;;;;;;;;;;11.10;99.90;;;;;;1871271;76;20232;-72
2021/10/17 04:39:31;;;;;;;;;;;11.10;99.90;;;;;;1870629;76;20262;-72
2021/10/17 04:41:59;;;;;;;;;;;11.10;99.90;;;;;;1871968;76;20410;-72
2021/10/17 04:44:26;;;;;;;;;;;11.20;99.90;;;;;;1871235;76;20113;-72
2021/10/17 04:46:52;;;;;;;;;;;11.20;99.90;;;;;;1872071;76;20168;-72
2021/10/17 04:49:25;;;;;;;;;;;11.10;99.90;;;;;;1867117;76;20180;-72
2021/10/17 04:51:48;;;;;;;;;;;11.10;99.90;;;;;;1871477;75;20151;-72
2021/10/17 04:54:14;;;;;;;;;;;11.20;99.90;;;;;;1872933;76;20399;-72
2021/10/17 04:56:41;;;;;;;;;;;11.10;99.90;;;;;;1876973;75;20210;-72
2021/10/17 04:59:08;;;;;;;;;;;11.20;99.90;;;;;;1871478;76;20127;-72
2021/10/17 05:01:35;;;;;;;;;;;11.20;99.90;;;;;;1873425;76;20187;-72
2021/10/17 05:04:02;;;;;;;;;;;11.10;99.90;;;;;;1874521;76;20262;-72
2021/10/17 05:06:28;;;;;;;;;;;11.10;99.90;;;;;;1872752;76;20746;-72
2021/10/17 05:08:55;;;;;;;;;;;11.10;99.90;;;;;;1870812;76;20172;-72
2021/10/17 05:11:25;;;;;;;;;;;11.10;99.90;;;;;;1871569;75;20164;-72
2021/10/17 05:13:50;;;;;;;;;;;11.10;99.90;;;;;;1870949;76;20531;-72
2021/10/17 05:16:17;;;;;;;;;;;11.10;99.90;;;;;;1871459;76;20180;-72
2021/10/17 05:18:44;;;;;;;;;;;11.20;99.90;;;;;;1870357;76;20177;-72
2021/10/17 05:21:11;;;;;;;;;;;11.10;99.90;;;;;;1873986;76;20458;-72
2021/10/17 05:23:38;;;;;;;;;;;11.10;99.90;;;;;;1873745;76;20254;-72
2021/10/17 05:26:05;;;;;;;;;;;11.10;99.90;;;;;;1873380;76;20472;-72
2021/10/17 05:28:32;;;;;;;;;;;11.10;99.90;;;;;;1868440;76;20235;-72
2021/10/17 05:31:03;;;;;;;;;;;11.10;99.90;;;;;;1868914;76;20439;-72
2021/10/17 05:33:27;;;;;;;;;;;11.10;99.90;;;;;;1871185;76;20117;-72
2021/10/17 05:35:54;;;;;;;;;;;11.10;99.90;;;;;;1869648;76;20183;-72
2021/10/17 05:38:21;;;;;;;;;;;11.10;99.90;;;;;;1871228;76;20199;-72
2021/10/17 05:40:48;;;;;;;;;;;11.10;99.90;;;;;;1873799;76;20223;-72
2021/10/17 05:43:15;;;;;;;;;;;11.10;99.90;;;;;;1872179;76;20185;-72
2021/10/17 05:45:41;;;;;;;;;;;11.10;99.90;;;;;;1873122;75;20215;-72
2021/10/17 05:48:08;;;;;;;;;;;11.20;99.90;;;;;;1872351;76;20205;-73
2021/10/17 05:50:35;;;;;;;;;;;11.20;99.90;;;;;;1871110;76;20160;-72
2021/10/17 05:53:02;;;;;;;;;;;11.20;99.90;;;;;;1873251;76;20369;-72
2021/10/17 05:55:29;;;;;;;;;;;11.20;99.90;;;;;;1875094;75;20156;-72
2021/10/17 05:57:55;;;;;;;;;;;11.20;99.90;;;;;;1871935;76;20164;-72
2021/10/17 06:00:22;;;;;;;;;;;11.10;99.90;;;;;;1872841;76;20172;-72
2021/10/17 06:02:49;;;;;;;;;;;11.10;99.90;;;;;;1873394;76;20129;-72
2021/10/17 06:05:16;;;;;;;;;;;11.10;99.90;;;;;;1872938;76;20210;-73
2021/10/17 06:07:43;;;;;;;;;;;11.00;99.90;;;;;;1871835;75;20214;-73
2021/10/17 06:10:13;;;;;;;;;;;11.10;99.90;;;;;;1872080;76;20183;-72
2021/10/17 06:12:40;;;;;;;;;;;11.10;99.90;;;;;;1872609;75;20205;-72
2021/10/17 06:15:08;;;;;;;;;;;11.10;99.90;;;;;;1874043;75;20245;-71
2021/10/17 06:17:35;;;;;;;;;;;11.10;99.90;;;;;;1870328;75;20401;-71
2021/10/17 06:20:02;;;;;;;;;;;11.10;99.90;;;;;;1871695;75;20183;-71
2021/10/17 06:22:28;;;;;;;;;;;11.10;99.90;;;;;;1873757;75;20123;-71
2021/10/17 06:24:56;;;;;;;;;;;11.10;99.90;;;;;;1871182;75;20181;-71
2021/10/17 06:27:23;;;;;;;;;;;11.10;99.90;;;;;;1873055;75;20236;-72
2021/10/17 06:29:50;;;;;;;;;;;11.10;99.90;;;;;;1871116;75;20255;-72
2021/10/17 06:32:17;;;;;;;;;;;11.10;99.90;;;;;;1867589;75;20187;-72
2021/10/17 06:34:44;;;;;;;;;;;11.20;99.90;;;;;;1868997;75;20169;-72
2021/10/17 06:37:11;;;;;;;;;;;11.20;99.90;;;;;;1873540;75;20181;-72
2021/10/17 06:39:38;;;;;;;;;;;11.20;99.90;;;;;;1874676;75;20170;-72
2021/10/17 06:42:04;;;;;;;;;;;11.20;99.90;;;;;;1869927;75;20207;-72
2021/10/17 06:44:31;;;;;;;;;;;11.20;99.90;;;;;;1875894;75;20183;-73
2021/10/17 06:46:58;;;;;;;;;;;11.20;99.90;;;;;;1869079;75;20177;-72
2021/10/17 06:49:25;;;;;;;;;;;11.20;99.90;;;;;;1872047;75;20373;-73
2021/10/17 06:51:52;;;;;;;;;;;11.20;99.90;;;;;;1872367;75;20179;-72
2021/10/17 06:54:18;;;;;;;;;;;11.20;99.90;;;;;;1872414;75;20209;-71
2021/10/17 06:56:47;;;;;;;;;;;11.20;99.90;;;;;;1873820;75;20128;-72
2021/10/17 06:59:14;;;;;;;;;;;11.10;99.90;;;;;;1872979;75;20874;-72
2021/10/17 07:01:40;;;;;;;;;;;11.10;99.90;;;;;;1873864;75;20272;-72
2021/10/17 07:04:07;;;;;;;;;;;11.20;99.90;;;;;;1870270;75;20177;-73
2021/10/17 07:06:34;;;;;;;;;;;11.20;99.90;;;;;;1872043;75;20485;-73
2021/10/17 07:09:01;;;;;;;;;;;11.20;99.90;;;;;;1877455;75;20181;-73
2021/10/17 07:11:27;;;;;;;;;;;11.10;99.90;;;;;;1878580;75;20407;-73
2021/10/17 07:13:54;;;;;;;;;;;11.20;99.90;;;;;;1873116;75;20249;-73
2021/10/17 07:16:21;;;;;;;;;;;11.20;99.90;;;;;;1874164;75;20483;-73
2021/10/17 07:18:48;;;;;;;;;;;11.10;99.90;;;;;;1874199;75;20153;-73
2021/10/17 07:21:15;;;;;;;;;;;11.20;99.90;;;;;;1847362;76;20542;-72
2021/10/17 07:23:41;;;;;;;;;;;11.20;99.90;;;;;;1870952;75;20119;-71
2021/10/17 07:26:09;;;;;;;;;;;11.20;99.90;;;;;;1869721;75;20168;-71
2021/10/17 07:28:35;;;;;;;;;;;11.20;99.90;;;;;;1871877;76;20557;-72
2021/10/17 07:31:02;;;;;;;;;;;11.20;99.90;;;;;;1875473;76;20265;-71
2021/10/17 07:33:30;;;;;;;;;;;11.20;99.90;;;;;;1887102;73;20179;-76
2021/10/17 07:35:57;;;;;;;;;;;11.30;99.90;;;;;;1918357;73;20188;-76
2021/10/17 07:38:24;;;;;;;;;;;11.20;99.90;;;;;;1898103;74;20259;-76
2021/10/17 07:40:51;;;;;;;;;;;11.30;99.90;;;;;;1900286;75;20230;-77
2021/10/17 07:43:17;;;;;;;;;;;11.30;99.90;;;;;;1893346;75;20191;-77
2021/10/17 07:45:44;;;;;;;;;;;11.30;99.90;;;;;;1908444;74;20157;-78
2021/10/17 07:48:11;;;;;;;;;;;11.20;99.90;;;;;;1904810;75;20193;-78
2021/10/17 07:50:38;;;;;;;;;;;11.30;99.90;;;;;;1907454;74;20228;-78
2021/10/17 07:53:05;;;;;;;;;;;11.30;99.90;;;;;;1902693;74;20538;-77
2021/10/17 07:55:32;;;;;;;;;;;11.30;99.90;;;;;;1903646;75;20205;-77
2021/10/17 07:57:59;;;;;;;;;;;11.40;99.90;;;;;;1897224;74;20316;-77
2021/10/17 08:00:28;;;;;;;;;;;11.40;99.90;;;;;;1907419;74;20188;-78
2021/10/17 08:02:54;;;;;;;;;;;11.40;99.90;;;;;;1907193;75;20116;-77
2021/10/17 08:05:21;;;;;;;;;;;11.40;99.90;;;;;;1897985;75;20612;-78
2021/10/17 08:07:49;;;;;;;;;;;11.50;99.90;;;;;;1902553;75;20177;-77
2021/10/17 08:10:16;;;;;;;;;;;11.40;99.90;;;;;;1904978;74;20211;-77
2021/10/17 08:12:42;;;;;;;;;;;11.40;99.90;;;;;;1901989;74;20247;-77
2021/10/17 08:15:10;;;;;;;;;;;11.50;99.90;;;;;;1902096;75;20439;-77
2021/10/17 08:17:37;;;;;;;;;;;11.50;99.90;;;;;;1903001;75;20106;-77
2021/10/17 08:20:05;;;;;;;;;;;11.50;99.90;;;;;;1904171;74;20175;-77
2021/10/17 08:22:32;;;;;;;;;;;11.60;99.90;;;;;;1904971;75;20169;-77
2021/10/17 08:24:59;;;;;;;;;;;11.50;99.90;;;;;;1905248;75;20177;-77
2021/10/17 08:27:26;;;;;;;;;;;11.50;99.90;;;;;;1901209;74;20614;-76
2021/10/17 08:29:53;;;;;;;;;;;11.60;99.90;;;;;;1904368;74;20219;-77
2021/10/17 08:32:20;;;;;;;;;;;11.60;99.90;;;;;;1900134;73;20982;-76
2021/10/17 08:34:46;;;;;;;;;;;11.60;99.90;;;;;;1898594;75;20165;-76
2021/10/17 08:37:13;;;;;;;;;;;11.70;99.90;;;;;;1908904;74;20173;-77
2021/10/17 08:39:40;;;;;;;;;;;11.70;99.90;;;;;;1909607;74;20172;-76
2021/10/17 08:42:07;;;;;;;;;;;11.70;99.90;;;;;;1902442;75;20153;-76
2021/10/17 08:44:34;;;;;;;;;;;11.70;99.90;;;;;;1901029;74;20208;-77
2021/10/17 08:47:01;;;;;;;;;;;11.80;99.90;;;;;;1904584;75;20169;-77
2021/10/17 08:49:28;;;;;;;;;;;11.80;99.90;;;;;;1909027;75;20130;-77
2021/10/17 08:51:55;;;;;;;;;;;11.80;99.90;;;;;;1903954;75;20544;-77
2021/10/17 08:54:22;;;;;;;;;;;11.80;99.90;;;;;;1900179;74;20113;-78
2021/10/17 08:56:49;;;;;;;;;;;11.80;99.90;;;;;;1901452;74;20217;-78
2021/10/17 08:59:16;;;;;;;;;;;11.90;99.90;;;;;;1904906;74;20165;-77
2021/10/17 09:01:42;;;;;;;;;;;11.90;99.90;;;;;;1900983;74;20361;-77
2021/10/17 09:04:10;;;;;;;;;;;11.90;99.90;;;;;;1897991;74;20183;-78
2021/10/17 09:06:38;;;;;;;;;;;11.90;99.90;;;;;;1903925;75;20221;-78
2021/10/17 09:09:06;;;;;;;;;;;11.90;99.90;;;;;;1903544;73;20218;-76
2021/10/17 09:11:47;;;;;;;;;;;12.00;99.90;;;;;;1902291;74;20236;-77
2021/10/17 09:14:14;;;;;;;;;;;12.00;99.90;;;;;;1904947;74;20191;-76
2021/10/17 09:16:43;;;;;;;;;;;12.00;99.90;;;;;;1904588;74;20212;-77
2021/10/17 09:19:11;;;;;;;;;;;12.00;99.90;;;;;;1903054;75;20165;-76
2021/10/17 09:21:39;;;;;;;;;;;12.00;99.90;;;;;;1903982;74;20212;-76
2021/10/17 09:24:06;;;;;;;;;;;12.00;99.90;;;;;;1898530;74;20244;-76
2021/10/17 09:26:37;;;;;;;;;;;12.00;99.90;;;;;;1906266;74;20173;-76
2021/10/17 09:29:01;;;;;;;;;;;12.00;99.90;;;;;;1899328;74;20577;-76
2021/10/17 09:31:29;;;;;;;;;;;12.00;99.90;;;;;;1903153;75;20118;-76
2021/10/17 09:33:56;;;;;;;;;;;12.00;99.90;;;;;;1907242;74;20166;-77
2021/10/17 09:36:28;;;;;;;;;;;12.10;99.90;;;;;;1901481;74;20236;-77
2021/10/17 09:39:09;;;;;;;;;;;12.10;99.90;;;;;;1902582;74;20154;-78
2021/10/17 09:41:35;;;;;;;;;;;12.10;99.90;;;;;;1899980;74;20128;-73
2021/10/17 09:44:03;;;;;;;;;;;12.10;99.90;;;;;;1904073;74;20967;-77
2021/10/17 09:46:30;;;;;;;;;;;12.20;99.90;;;;;;1905949;74;20515;-77
2021/10/17 09:48:57;;;;;;;;;;;12.20;99.90;;;;;;1905242;74;20413;-77
2021/10/17 09:51:26;;;;;;;;;;;12.20;99.90;;;;;;1906685;74;20221;-77
2021/10/17 09:53:54;;;;;;;;;;;12.30;99.90;;;;;;1902895;75;20192;-77
2021/10/17 09:56:38;;;;;;;;;;;12.30;99.90;;;;;;1894435;75;20452;-77
2021/10/17 09:59:06;;;;;;;;;;;12.30;99.90;;;;;;1907403;75;20467;-81
2021/10/17 10:01:34;;;;;;;;;;;12.30;99.90;;;;;;1905666;74;20229;-74
2021/10/17 10:04:02;;;;;;;;;;;12.30;99.90;;;;;;1904140;74;20201;-77
2021/10/17 10:06:30;;;;;;;;;;;12.40;99.90;;;;;;1905536;75;20213;-74
2021/10/17 10:08:58;;;;;;;;;;;12.40;99.90;;;;;;1902023;75;20165;-74
2021/10/17 10:11:26;;;;;;;;;;;12.40;99.90;;;;;;1900057;75;20130;-74
2021/10/17 10:13:54;;;;;;;;;;;12.50;99.90;;;;;;1899577;75;20169;-74
2021/10/17 10:16:22;;;;;;;;;;;12.50;99.90;;;;;;1900044;75;20120;-74
2021/10/17 10:18:53;;;;;;;;;;;12.60;99.90;;;;;;1904304;73;20239;-74
2021/10/17 10:21:21;;;;;;;;;;;12.60;99.90;;;;;;1899096;75;20964;-74
2021/10/17 10:23:49;;;;;;;;;;;12.70;99.90;;;;;;1905119;75;20657;-74
2021/10/17 10:26:17;;;;;;;;;;;12.70;99.90;;;;;;1901923;73;20214;-75
2021/10/17 10:28:44;;;;;;;;;;;12.70;99.90;;;;;;1901292;75;20175;-74
2021/10/17 10:31:12;;;;;;;;;;;12.80;99.90;;;;;;1904012;75;20410;-75
2021/10/17 10:33:45;;;;;;;;;;;12.80;99.90;;;;;;1892935;75;20233;-74
2021/10/17 10:36:16;;;;;;;;;;;12.80;99.90;;;;;;1901354;74;20373;-73
2021/10/17 10:38:44;;;;;;;;;;;12.80;99.90;;;;;;1897595;75;20180;-74
2021/10/17 10:41:16;;;;;;;;;;;12.90;99.90;;;;;;1883950;75;20637;-74
2021/10/17 10:43:43;;;;;;;;;;;12.90;99.90;;;;;;1898606;75;20420;-75
2021/10/17 10:46:10;;;;;;;;;;;12.90;99.90;;;;;;1897386;75;20516;-74
2021/10/17 10:48:38;;;;;;;;;;;13.00;99.90;;;;;;1898418;75;20146;-74
2021/10/17 10:51:06;;;;;;;;;;;13.00;99.90;;;;;;1898504;75;20716;-74
2021/10/17 10:53:41;;;;;;;;;;;13.00;99.90;;;;;;1901249;75;20227;-75
2021/10/17 10:56:07;;;;;;;;;;;13.00;99.90;;;;;;1887446;75;20527;-74
2021/10/17 10:58:37;;;;;;;;;;;13.00;99.90;;;;;;1901632;75;20168;-73
2021/10/17 11:01:04;;;;;;;;;;;13.00;99.90;;;;;;1901566;75;20171;-73
2021/10/17 11:03:32;;;;;;;;;;;13.00;99.90;;;;;;1893692;75;20457;-75
2021/10/17 11:06:07;;;;;;;;;;;13.00;99.90;;;;;;1901365;75;20204;-75
2021/10/17 11:08:37;;;;;;;;;;;13.10;99.90;;;;;;1902684;75;20568;-75
2021/10/17 11:11:04;;;;;;;;;;;13.10;99.90;;;;;;1899056;75;20181;-74
2021/10/17 11:13:35;;;;;;;;;;;13.10;99.90;;;;;;1899066;75;20427;-74
2021/10/17 11:16:03;;;;;;;;;;;13.10;99.90;;;;;;1899791;75;20183;-73
2021/10/17 11:18:31;;;;;;;;;;;13.10;99.90;;;;;;1901835;75;20175;-75
2021/10/17 11:20:58;;;;;;;;;;;13.00;99.90;;;;;;1898176;75;20203;-75
2021/10/17 11:23:26;;;;;;;;;;;13.10;99.90;;;;;;1896615;75;20157;-75
2021/10/17 11:25:54;;;;;;;;;;;13.10;99.90;;;;;;1899248;75;20128;-74
2021/10/17 11:28:22;;;;;;;;;;;13.10;99.90;;;;;;1899511;75;20253;-75
2021/10/17 11:30:49;;;;;;;;;;;13.10;99.90;;;;;;1900064;75;20119;-76
2021/10/17 11:33:20;;;;;;;;;;;13.10;99.90;;;;;;1900646;75;20530;-75
2021/10/17 11:35:48;;;;;;;;;;;13.10;99.90;;;;;;1900636;75;20118;-74
2021/10/17 11:38:16;;;;;;;;;;;13.20;99.90;;;;;;1902133;75;20277;-74
2021/10/17 11:40:44;;;;;;;;;;;13.20;99.90;;;;;;1901541;75;20257;-74
2021/10/17 11:43:11;;;;;;;;;;;13.20;99.90;;;;;;1900114;75;20169;-74
2021/10/17 11:45:39;;;;;;;;;;;13.20;99.90;;;;;;1900233;75;20162;-73
2021/10/17 11:48:07;;;;;;;;;;;13.20;99.90;;;;;;1900838;75;20116;-76
2021/10/17 11:50:38;;;;;;;;;;;13.20;99.90;;;;;;1898771;75;20179;-75
2021/10/17 11:53:10;;;;;;;;;;;13.20;99.90;;;;;;1900637;75;20217;-76
2021/10/17 11:55:38;;;;;;;;;;;13.20;99.90;;;;;;1899002;75;20520;-74
2021/10/17 11:58:06;;;;;;;;;;;13.20;99.90;;;;;;1896851;75;20513;-76
2021/10/17 12:00:34;;;;;;;;;;;13.20;99.90;;;;;;1901124;75;20181;-76
2021/10/17 12:03:01;;;;;;;;;;;13.20;99.90;;;;;;1900407;75;20198;-76
2021/10/17 12:05:28;;;;;;;;;;;13.20;99.90;;;;;;1898921;74;20175;-76
2021/10/17 12:07:56;;;;;;;;;;;13.20;99.90;;;;;;1900549;75;20183;-76
2021/10/17 12:10:24;;;;;;;;;;;13.20;99.90;;;;;;1902569;75;20164;-76
2021/10/17 12:12:51;;;;;;;;;;;13.30;99.90;;;;;;1899503;75;20506;-75
2021/10/17 12:15:18;;;;;;;;;;;13.30;99.90;;;;;;1899888;75;20122;-77
2021/10/17 12:17:46;;;;;;;;;;;13.20;99.90;;;;;;1900610;75;20875;-77
2021/10/17 12:20:14;;;;;;;;;;;13.20;99.90;;;;;;1892892;75;20208;-77
2021/10/17 12:22:42;;;;;;;;;;;13.20;99.90;;;;;;1900251;75;20504;-76
2021/10/17 12:25:09;;;;;;;;;;;13.20;99.90;;;;;;1901809;75;20534;-76
2021/10/17 12:27:38;;;;;;;;;;;13.20;99.90;;;;;;1900916;75;20118;-76
2021/10/17 12:30:10;;;;;;;;;;;13.20;99.90;;;;;;1895517;75;20167;-77
2021/10/17 12:32:56;;;;;;;;;;;13.20;99.90;;;;;;1900259;75;20141;-76
2021/10/17 12:35:36;;;;;;;;;;;13.20;99.90;;;;;;1893489;75;20380;-75
2021/10/17 12:38:07;;;;;;;;;;;13.20;99.90;;;;;;1896677;75;20122;-76
2021/10/17 12:40:52;;;;;;;;;;;13.20;99.90;;;;;;1899483;75;20185;-75
2021/10/17 12:43:25;;;;;;;;;;;13.10;99.90;;;;;;1902056;75;20116;-75
2021/10/17 12:45:53;;;;;;;;;;;13.10;99.90;;;;;;1898088;75;20181;-75
2021/10/17 12:48:21;;;;;;;;;;;13.10;99.90;;;;;;1898767;75;20177;-75
2021/10/17 12:50:48;;;;;;;;;;;13.10;99.90;;;;;;1887935;75;20224;-75
2021/10/17 12:53:16;;;;;;;;;;;13.10;99.90;;;;;;1896839;75;20120;-75
2021/10/17 12:55:43;;;;;;;;;;;13.10;99.90;;;;;;1897222;75;20157;-75
2021/10/17 12:58:13;;;;;;;;;;;13.10;99.90;;;;;;1897201;75;20206;-75
2021/10/17 13:00:41;;;;;;;;;;;13.10;99.90;;;;;;1902235;75;20121;-75
2021/10/17 13:03:12;;;;;;;;;;;13.10;99.90;;;;;;1902127;75;20219;-77
2021/10/17 13:05:58;;;;;;;;;;;13.10;99.90;;;;;;1895880;75;20169;-74
2021/10/17 13:08:26;;;;;;;;;;;13.10;99.90;;;;;;1901698;75;20180;-74
2021/10/17 13:10:54;;;;;;;;;;;13.10;99.90;;;;;;1899847;75;20236;-75
2021/10/17 13:13:23;;;;;;;;;;;13.10;99.90;;;;;;1900295;73;20209;-74
2021/10/17 13:15:56;;;;;;;;;;;13.10;99.90;;;;;;1900867;75;20126;-74
2021/10/17 13:18:23;;;;;;;;;;;13.10;99.90;;;;;;1900923;75;20482;-74
2021/10/17 13:20:50;;;;;;;;;;;13.10;99.90;;;;;;1904876;75;20117;-74
2021/10/17 13:23:19;;;;;;;;;;;13.10;99.90;;;;;;1897333;75;20179;-75
2021/10/17 13:25:48;;;;;;;;;;;13.10;99.90;;;;;;1895880;75;20504;-75
2021/10/17 13:28:16;;;;;;;;;;;13.10;99.90;;;;;;1899085;75;20183;-74
2021/10/17 13:30:44;;;;;;;;;;;13.10;99.90;;;;;;1900871;75;20157;-74
2021/10/17 13:33:15;;;;;;;;;;;13.10;99.90;;;;;;1902130;75;20185;-75
2021/10/17 13:35:40;;;;;;;;;;;13.10;99.90;;;;;;1878612;71;20175;-71
2021/10/17 13:38:07;;;;;;;;;;;13.20;99.90;;;;;;1880306;74;20218;-71
2021/10/17 13:40:34;;;;;;;;;;;13.10;99.90;;;;;;1875511;76;20122;-71
2021/10/17 13:43:03;;;;;;;;;;;13.10;99.90;;;;;;1847272;76;20319;-72
2021/10/17 13:45:30;;;;;;;;;;;13.10;99.90;;;;;;1874999;74;20171;-71
2021/10/17 13:47:58;;;;;;;;;;;13.20;99.90;;;;;;1880531;75;20175;-71
2021/10/17 13:50:25;;;;;;;;;;;13.10;99.90;;;;;;1874045;75;20328;-71
2021/10/17 13:52:52;;;;;;;;;;;13.20;99.90;;;;;;1880197;74;20222;-71
2021/10/17 13:55:19;;;;;;;;;;;13.10;99.90;;;;;;1877880;75;20372;-71
2021/10/17 13:57:45;;;;;;;;;;;13.10;99.90;;;;;;1878413;74;20175;-71
2021/10/17 14:00:14;;;;;;;;;;;13.10;99.90;;;;;;1880904;74;20190;-71
2021/10/17 14:02:41;;;;;;;;;;;13.10;99.90;;;;;;1876604;74;20427;-71
2021/10/17 14:05:08;;;;;;;;;;;13.10;99.90;;;;;;1878754;75;20212;-71
2021/10/17 14:07:35;;;;;;;;;;;13.10;99.90;;;;;;1877261;74;20545;-71
2021/10/17 14:10:02;;;;;;;;;;;13.10;99.90;;;;;;1877674;75;20220;-71
2021/10/17 14:12:28;;;;;;;;;;;13.10;99.90;;;;;;1874618;75;20112;-71
2021/10/17 14:14:55;;;;;;;;;;;13.10;99.90;;;;;;1874880;75;20379;-71
2021/10/17 14:17:22;;;;;;;;;;;13.10;99.90;;;;;;1875594;75;20177;-71